createdAt,value
2018-06-22T00:01:06.999Z,2.90
2018-06-22T00:03:36.960Z,3.30
2018-06-22T00:06:06.971Z,2.83
2018-06-22T00:08:36.970Z,3.40
2018-06-22T00:11:06.863Z,2.57
2018-06-22T00:13:36.746Z,2.70
2018-06-22T00:16:06.703Z,2.67
2018-06-22T00:18:36.668Z,3.40
2018-06-22T00:21:06.648Z,2.67
2018-06-22T00:23:36.497Z,2.67
2018-06-22T00:26:06.886Z,2.97
2018-06-22T00:28:36.766Z,3.10
2018-06-22T00:31:06.848Z,2.10
2018-06-22T00:33:36.792Z,2.90
2018-06-22T00:36:06.763Z,2.47
2018-06-22T00:38:36.663Z,2.83
2018-06-22T00:41:06.722Z,2.73
2018-06-22T00:43:36.616Z,3.57
2018-06-22T00:46:06.708Z,2.97
2018-06-22T00:48:36.767Z,2.87
2018-06-22T00:51:06.890Z,2.07
2018-06-22T00:53:53.207Z,2.70
2018-06-22T00:56:23.146Z,2.00
2018-06-22T00:58:52.945Z,3.50
2018-06-22T01:01:22.851Z,2.33
2018-06-22T01:03:52.886Z,3.00
2018-06-22T01:06:22.756Z,3.03
2018-06-22T01:08:52.923Z,1.80
2018-06-22T01:11:22.852Z,3.17
2018-06-22T01:13:52.738Z,2.17
2018-06-22T01:16:22.723Z,2.00
2018-06-22T01:18:52.747Z,2.80
2018-06-22T01:21:22.781Z,2.27
2018-06-22T01:23:52.708Z,2.37
2018-06-22T01:26:22.722Z,2.13
2018-06-22T01:28:56.571Z,3.30
2018-06-22T01:31:26.398Z,2.37
2018-06-22T01:33:56.362Z,2.17
2018-06-22T01:36:26.494Z,2.43
2018-06-22T01:38:56.575Z,2.97
2018-06-22T01:41:26.938Z,2.33
2018-06-22T01:43:57.407Z,2.70
2018-06-22T01:46:27.410Z,2.30
2018-06-22T01:48:57.629Z,2.57
2018-06-22T01:51:27.583Z,2.20
2018-06-22T01:53:57.514Z,2.40
2018-06-22T01:56:27.563Z,3.00
2018-06-22T01:58:57.479Z,3.53
2018-06-22T02:01:28.022Z,2.40
2018-06-22T02:03:57.949Z,2.60
2018-06-22T02:06:27.911Z,2.10
2018-06-22T02:08:58.006Z,3.60
2018-06-22T02:11:28.123Z,2.70
2018-06-22T02:13:58.119Z,2.80
2018-06-22T02:16:28.139Z,3.17
2018-06-22T02:18:58.323Z,2.73
2018-06-22T02:21:28.436Z,2.90
2018-06-22T02:23:58.488Z,3.50
2018-06-22T02:26:28.431Z,2.97
2018-06-22T02:28:58.423Z,2.87
2018-06-22T02:31:28.513Z,2.87
2018-06-22T02:33:58.466Z,2.40
2018-06-22T02:36:28.599Z,2.63
2018-06-22T02:38:58.494Z,3.07
2018-06-22T02:41:28.586Z,3.53
2018-06-22T02:43:58.548Z,3.10
2018-06-22T02:46:28.573Z,2.63
2018-06-22T02:48:58.428Z,3.80
2018-06-22T02:51:28.494Z,2.87
2018-06-22T02:53:58.480Z,2.63
2018-06-22T02:56:28.460Z,2.50
2018-06-22T02:58:58.514Z,2.77
2018-06-22T03:01:28.508Z,3.07
2018-06-22T03:03:58.502Z,2.97
2018-06-22T03:06:28.466Z,3.70
2018-06-22T03:08:58.488Z,3.30
2018-06-22T03:11:28.508Z,2.97
2018-06-22T03:13:58.582Z,1.90
2018-06-22T03:16:28.594Z,3.87
2018-06-22T03:18:58.697Z,3.10
2018-06-22T03:21:28.769Z,2.33
2018-06-22T03:23:58.781Z,3.33
2018-06-22T03:26:28.833Z,2.97
2018-06-22T03:28:58.755Z,2.90
2018-06-22T03:31:28.763Z,3.50
2018-06-22T03:33:58.603Z,3.93
2018-06-22T03:36:28.555Z,2.43
2018-06-22T03:38:58.576Z,2.40
2018-06-22T03:41:28.582Z,2.77
2018-06-22T03:43:59.215Z,3.80
2018-06-22T03:46:29.276Z,3.20
2018-06-22T03:48:59.263Z,3.20
2018-06-22T03:51:29.363Z,2.50
2018-06-22T03:53:59.360Z,2.53
2018-06-22T03:56:29.430Z,2.27
2018-06-22T03:58:59.439Z,3.30
2018-06-22T04:01:29.420Z,2.83
2018-06-22T04:03:59.351Z,3.80
2018-06-22T04:06:29.378Z,2.90
2018-06-22T04:08:59.323Z,2.60
2018-06-22T04:11:29.380Z,2.40
2018-06-22T04:13:59.273Z,3.20
2018-06-22T04:16:29.275Z,2.60
2018-06-22T04:18:59.466Z,3.10
2018-06-22T04:21:29.455Z,3.17
2018-06-22T04:23:59.560Z,2.60
2018-06-22T04:26:29.712Z,3.00
2018-06-22T04:28:59.699Z,3.40
2018-06-22T04:31:29.869Z,2.90
2018-06-22T04:33:59.939Z,3.07
2018-06-22T04:36:29.912Z,3.00
2018-06-22T04:38:59.832Z,3.00
2018-06-22T04:41:29.828Z,3.30
2018-06-22T04:43:59.803Z,3.40
2018-06-22T04:46:29.846Z,2.80
2018-06-22T04:49:03.677Z,2.93
2018-06-22T04:51:33.791Z,2.80
2018-06-22T04:54:04.827Z,3.10
2018-06-22T04:56:34.744Z,2.90
2018-06-22T04:59:04.791Z,3.00
2018-06-22T05:01:34.778Z,3.00
2018-06-22T05:04:04.677Z,2.70
2018-06-22T05:06:34.651Z,2.97
2018-06-22T05:09:06.355Z,3.30
2018-06-22T05:11:36.366Z,2.73
2018-06-22T05:14:07.238Z,2.93
2018-06-22T05:16:37.175Z,2.80
2018-06-22T05:19:07.471Z,3.07
2018-06-22T05:21:41.836Z,2.67
2018-06-22T05:24:11.803Z,3.60
2018-06-22T05:26:41.728Z,3.43
2018-06-22T05:29:11.672Z,3.27
2018-06-22T05:31:41.717Z,3.27
2018-06-22T05:34:11.699Z,3.17
2018-06-22T05:36:41.604Z,2.77
2018-06-22T05:39:12.970Z,3.67
2018-06-22T05:41:42.962Z,3.50
2018-06-22T05:44:12.970Z,3.10
2018-06-22T05:46:42.968Z,2.93
2018-06-22T05:49:12.948Z,3.70
2018-06-22T05:51:43.070Z,3.63
2018-06-22T05:54:13.463Z,3.37
2018-06-22T05:56:43.563Z,3.03
2018-06-22T05:59:13.498Z,3.10
2018-06-22T06:01:43.550Z,3.00
2018-06-22T06:04:13.534Z,3.97
2018-06-22T06:06:43.565Z,3.03
2018-06-22T06:09:13.635Z,3.10
2018-06-22T06:11:43.626Z,3.00
2018-06-22T06:14:13.636Z,3.00
2018-06-22T06:16:43.803Z,3.50
2018-06-22T06:19:13.732Z,2.97
2018-06-22T06:21:43.727Z,3.67
2018-06-22T06:24:13.753Z,3.40
2018-06-22T06:26:44.288Z,2.80
2018-06-22T06:29:14.312Z,2.83
2018-06-22T06:31:44.369Z,2.67
2018-06-22T06:34:14.390Z,4.43
2018-06-22T06:36:44.347Z,3.40
2018-06-22T06:39:14.495Z,4.47
2018-06-22T06:41:44.559Z,3.50
2018-06-22T06:44:14.636Z,3.60
2018-06-22T06:46:44.650Z,3.50
2018-06-22T06:49:14.670Z,3.60
2018-06-22T06:51:44.701Z,3.33
2018-06-22T06:54:14.695Z,3.70
2018-06-22T06:56:44.707Z,3.90
2018-06-22T06:59:14.725Z,3.90
2018-06-22T07:01:44.754Z,5.13
2018-06-22T07:04:14.887Z,4.90
2018-06-22T07:06:44.974Z,4.30
2018-06-22T07:09:15.137Z,4.73
2018-06-22T07:11:45.155Z,4.20
2018-06-22T07:14:15.258Z,5.20
2018-06-22T07:16:45.228Z,4.27
2018-06-22T07:19:15.359Z,5.57
2018-06-22T07:21:45.455Z,4.13
2018-06-22T07:24:15.883Z,5.10
2018-06-22T07:26:46.008Z,5.40
2018-06-22T07:29:16.412Z,4.50
2018-06-22T07:31:46.423Z,5.40
2018-06-22T07:34:16.664Z,5.80
2018-06-22T07:36:46.779Z,5.43
2018-06-22T07:39:16.822Z,5.03
2018-06-22T07:41:46.912Z,4.90
2018-06-22T07:44:17.016Z,4.63
2018-06-22T07:46:47.205Z,5.57
2018-06-22T07:49:17.270Z,6.33
2018-06-22T07:51:47.261Z,5.17
2018-06-22T07:54:17.292Z,5.90
2018-06-22T07:56:47.283Z,5.53
2018-06-22T07:59:17.245Z,4.97
2018-06-22T08:01:47.247Z,4.80
2018-06-22T08:04:17.320Z,6.30
2018-06-22T08:06:47.319Z,5.93
2018-06-22T08:09:17.346Z,6.03
2018-06-22T08:11:47.318Z,4.30
2018-06-22T08:14:17.375Z,5.50
2018-06-22T08:16:47.452Z,4.93
2018-06-22T08:19:17.673Z,5.10
2018-06-22T08:21:47.700Z,4.77
2018-06-22T08:24:17.926Z,6.70
2018-06-22T08:26:48.410Z,5.40
2018-06-22T08:29:18.466Z,5.43
2018-06-22T08:31:48.496Z,5.60
2018-06-22T08:34:18.493Z,4.97
2018-06-22T08:36:48.491Z,5.00
2018-06-22T08:39:18.477Z,5.40
2018-06-22T08:41:48.656Z,5.23
2018-06-22T08:44:18.471Z,4.60
2018-06-22T08:46:48.750Z,4.90
2018-06-22T08:49:18.826Z,4.23
2018-06-22T08:51:48.835Z,5.33
2018-06-22T08:54:18.979Z,4.30
2018-06-22T08:56:48.901Z,3.77
2018-06-22T08:59:18.976Z,3.53
2018-06-22T09:01:49.385Z,3.57
2018-06-22T09:04:19.299Z,4.40
2018-06-22T09:06:49.257Z,5.00
2018-06-22T09:09:19.243Z,4.13
2018-06-22T09:11:49.191Z,4.40
2018-06-22T09:14:19.130Z,5.03
2018-06-22T09:16:49.041Z,4.23
2018-06-22T09:19:19.292Z,4.60
2018-06-22T09:21:49.332Z,4.30
2018-06-22T09:24:19.210Z,4.00
2018-06-22T09:26:49.123Z,4.70
2018-06-22T09:29:18.963Z,5.00
2018-06-22T09:31:48.913Z,5.33
2018-06-22T09:34:18.951Z,4.87
2018-06-22T09:36:48.916Z,5.33
2018-06-22T09:39:19.095Z,4.17
2018-06-22T09:41:49.113Z,3.77
2018-06-22T09:44:32.822Z,4.60
2018-06-22T09:47:03.029Z,3.70
2018-06-22T09:49:33.410Z,3.87
2018-06-22T09:52:03.327Z,4.30
2018-06-22T09:54:33.318Z,3.70
2018-06-22T09:57:03.330Z,4.27
2018-06-22T09:59:33.326Z,3.10
2018-06-22T10:02:03.345Z,4.50
2018-06-22T10:04:33.367Z,4.60
2018-06-22T10:07:03.383Z,4.10
2018-06-22T10:09:33.431Z,4.57
2018-06-22T10:12:03.450Z,4.10
2018-06-22T10:14:33.403Z,5.53
2018-06-22T10:17:03.371Z,5.27
2018-06-22T10:19:33.521Z,5.10
2018-06-22T10:22:03.514Z,4.37
2018-06-22T10:24:33.499Z,4.57
2018-06-22T10:27:03.781Z,3.77
2018-06-22T10:29:33.761Z,3.83
2018-06-22T10:32:03.807Z,4.00
2018-06-22T10:34:33.752Z,3.50
2018-06-22T10:37:03.726Z,3.40
2018-06-22T10:39:33.695Z,4.73
2018-06-22T10:42:03.723Z,4.43
2018-06-22T10:44:33.795Z,4.57
2018-06-22T10:47:04.054Z,5.00
2018-06-22T10:49:52.122Z,4.60
2018-06-22T10:52:22.147Z,4.30
2018-06-22T10:54:52.040Z,4.33
2018-06-22T10:57:22.039Z,4.00
2018-06-22T10:59:52.174Z,3.90
2018-06-22T11:02:22.166Z,3.97
2018-06-22T11:04:52.263Z,4.00
2018-06-22T11:07:22.225Z,3.80
2018-06-22T11:09:52.244Z,3.20
2018-06-22T11:12:22.191Z,4.30
2018-06-22T11:14:52.477Z,3.77
2018-06-22T11:17:22.553Z,3.30
2018-06-22T11:19:52.480Z,2.37
2018-06-22T11:22:22.479Z,2.87
2018-06-22T11:24:52.481Z,3.30
2018-06-22T11:27:22.549Z,4.13
2018-06-22T11:29:52.528Z,4.00
2018-06-22T11:32:22.514Z,5.00
2018-06-22T11:34:52.483Z,5.17
2018-06-22T11:37:22.452Z,5.33
2018-06-22T11:39:52.415Z,4.73
2018-06-22T11:42:23.045Z,4.40
2018-06-22T11:44:53.003Z,4.43
2018-06-22T11:47:23.003Z,4.80
2018-06-22T11:49:52.963Z,4.37
2018-06-22T11:52:23.256Z,4.90
2018-06-22T11:54:53.359Z,5.10
2018-06-22T11:57:23.256Z,3.70
2018-06-22T11:59:53.177Z,5.83
2018-06-22T12:02:23.228Z,5.53
2018-06-22T12:04:56.063Z,5.03
2018-06-22T12:07:26.036Z,3.47
2018-06-22T12:09:55.956Z,2.63
2018-06-22T12:12:26.515Z,2.63
2018-06-22T12:14:57.229Z,3.70
2018-06-22T12:17:27.292Z,3.27
2018-06-22T12:19:57.252Z,2.57
2018-06-22T12:22:27.261Z,3.30
2018-06-22T12:24:57.230Z,2.90
2018-06-22T12:27:27.354Z,2.97
2018-06-22T12:29:57.827Z,3.33
2018-06-22T12:32:28.173Z,3.00
2018-06-22T12:34:58.163Z,2.77
2018-06-22T12:37:28.199Z,3.03
2018-06-22T12:39:58.621Z,3.30
2018-06-22T12:42:28.720Z,4.20
2018-06-22T12:45:04.181Z,2.83
2018-06-22T12:47:34.385Z,2.50
2018-06-22T12:50:05.373Z,2.80
2018-06-22T12:52:35.424Z,3.10
2018-06-22T12:55:05.472Z,2.70
2018-06-22T12:57:37.231Z,2.80
2018-06-22T13:00:08.603Z,2.80
2018-06-22T13:02:38.667Z,3.50
2018-06-22T13:05:08.686Z,3.07
2018-06-22T13:07:38.756Z,2.77
2018-06-22T13:10:09.096Z,2.77
2018-06-22T13:12:39.151Z,3.63
2018-06-22T13:15:09.213Z,3.13
2018-06-22T13:17:39.651Z,2.70
2018-06-22T13:20:09.679Z,2.80
2018-06-22T13:22:39.655Z,2.77
2018-06-22T13:25:18.558Z,2.53
2018-06-22T13:27:48.535Z,2.40
2018-06-22T13:30:18.479Z,2.90
2018-06-22T13:32:48.779Z,2.30
2018-06-22T13:35:18.719Z,3.20
2018-06-22T13:37:48.840Z,2.40
2018-06-22T13:40:18.844Z,2.67
2018-06-22T13:42:48.906Z,1.90
2018-06-22T13:45:18.871Z,1.90
2018-06-22T13:47:48.736Z,2.30
2018-06-22T13:50:18.778Z,2.47
2018-06-22T13:52:48.819Z,2.50
2018-06-22T13:55:18.817Z,2.00
2018-06-22T13:57:48.863Z,2.67
2018-06-22T14:00:18.884Z,2.47
2018-06-22T14:02:48.852Z,2.40
2018-06-22T14:05:23.719Z,2.73
2018-06-22T14:07:53.689Z,2.47
2018-06-22T14:10:23.670Z,3.17
2018-06-22T14:12:53.643Z,2.13
2018-06-22T14:15:23.524Z,2.90
2018-06-22T14:17:53.523Z,2.50
2018-06-22T14:20:23.549Z,2.63
2018-06-22T14:22:53.810Z,2.33
2018-06-22T14:25:23.675Z,2.03
2018-06-22T14:27:53.512Z,2.57
2018-06-22T14:30:23.725Z,2.00
2018-06-22T14:32:53.905Z,2.20
2018-06-22T14:35:23.833Z,2.30
2018-06-22T14:37:53.723Z,2.33
2018-06-22T14:40:23.787Z,2.60
2018-06-22T14:42:54.514Z,2.50
2018-06-22T14:45:24.494Z,2.40
2018-06-22T14:47:54.366Z,2.17
2018-06-22T14:50:24.306Z,2.00
2018-06-22T14:52:54.278Z,1.50
2018-06-22T14:55:34.532Z,2.50
2018-06-22T14:58:10.400Z,2.03
2018-06-22T15:00:45.208Z,1.90
2018-06-22T15:03:20.262Z,2.10
2018-06-22T15:08:00.153Z,2.20
2018-06-22T15:10:30.006Z,1.63
2018-06-22T15:12:59.843Z,2.10
2018-06-22T15:15:29.767Z,1.47
2018-06-22T15:17:59.769Z,1.90
2018-06-22T15:20:29.768Z,2.20
2018-06-22T15:23:01.879Z,1.63
2018-06-22T15:25:32.222Z,1.60
2018-06-22T15:28:03.399Z,1.30
2018-06-22T15:30:33.219Z,1.63
2018-06-22T15:33:03.023Z,2.23
2018-06-22T15:35:37.940Z,1.80
2018-06-22T15:38:12.950Z,1.80
2018-06-22T15:40:47.878Z,1.70
2018-06-22T15:43:22.930Z,1.50
2018-06-22T15:45:57.874Z,1.50
2018-06-22T15:48:32.855Z,1.80
2018-06-22T15:51:07.989Z,1.20
2018-06-22T15:53:42.738Z,1.53
2018-06-22T15:56:12.820Z,1.50
2018-06-22T15:58:42.788Z,1.50
2018-06-22T16:01:12.790Z,2.10
2018-06-22T16:03:47.711Z,2.07
2018-06-22T16:06:17.829Z,1.43
2018-06-22T16:08:47.843Z,1.40
2018-06-22T16:11:17.874Z,1.40
2018-06-22T16:13:52.714Z,1.87
2018-06-22T16:16:27.785Z,1.07
2018-06-22T16:19:02.721Z,1.87
2018-06-22T16:21:38.025Z,1.60
2018-06-22T16:24:13.144Z,2.20
2018-06-22T16:26:48.074Z,1.97
2018-06-22T16:29:21.647Z,2.07
2018-06-22T16:31:52.859Z,1.87
2018-06-22T16:34:22.865Z,1.80
2018-06-22T16:36:52.786Z,1.90
2018-06-22T16:39:22.627Z,2.20
2018-06-22T16:41:52.708Z,1.97
2018-06-22T16:44:22.602Z,2.97
2018-06-22T16:46:52.661Z,2.87
2018-06-22T16:49:22.520Z,2.33
2018-06-22T16:51:52.368Z,1.83
2018-06-22T16:54:22.456Z,2.23
2018-06-22T16:56:52.539Z,2.33
2018-06-22T16:59:22.340Z,2.70
2018-06-22T17:01:52.200Z,2.60
2018-06-22T17:04:22.111Z,2.70
2018-06-22T17:06:57.231Z,3.17
2018-06-22T17:09:32.307Z,2.60
2018-06-22T17:12:07.261Z,2.40
2018-06-22T17:14:42.423Z,1.87
2018-06-22T17:17:17.439Z,2.30
2018-06-22T17:19:47.451Z,1.90
2018-06-22T17:22:17.419Z,2.27
2018-06-22T17:24:47.167Z,2.17
2018-06-22T17:27:17.021Z,2.10
2018-06-22T17:29:46.779Z,1.80
2018-06-22T17:32:17.707Z,2.20
2018-06-22T17:34:47.963Z,2.40
2018-06-22T17:37:17.969Z,1.80
2018-06-22T17:39:47.975Z,2.07
2018-06-22T17:42:18.007Z,1.90
2018-06-22T17:44:48.011Z,2.40
2018-06-22T17:47:18.164Z,2.43
2018-06-22T17:49:48.378Z,1.90
2018-06-22T17:52:18.432Z,1.60
2018-06-22T17:54:48.979Z,2.30
2018-06-22T17:57:18.886Z,2.50
2018-06-22T18:01:59.273Z,2.00
2018-06-22T18:04:34.333Z,2.10
2018-06-22T18:07:09.707Z,2.20
2018-06-22T18:09:44.672Z,1.93
2018-06-22T18:12:19.693Z,2.73
2018-06-22T18:14:51.611Z,2.07
2018-06-22T18:17:21.448Z,2.07
2018-06-22T18:19:51.617Z,2.50
2018-06-22T18:22:21.687Z,2.23
2018-06-22T18:24:52.446Z,2.60
2018-06-22T18:27:23.060Z,2.60
2018-06-22T18:29:52.980Z,2.27
2018-06-22T18:32:23.080Z,2.20
2018-06-22T18:34:53.300Z,2.40
2018-06-22T18:37:23.358Z,2.07
2018-06-22T18:39:53.554Z,2.60
2018-06-22T18:42:23.635Z,2.07
2018-06-22T18:44:58.201Z,2.20
2018-06-22T18:47:28.231Z,2.37
2018-06-22T18:50:07.504Z,2.47
2018-06-22T18:52:46.470Z,2.07
2018-06-22T18:57:27.519Z,2.20
2018-06-22T19:00:02.442Z,2.50
2018-06-22T19:02:37.770Z,2.23
2018-06-22T19:05:08.140Z,2.37
2018-06-22T19:07:38.128Z,2.90
2018-06-22T19:10:08.183Z,1.70
2018-06-22T19:12:38.301Z,2.70
2018-06-22T19:15:08.332Z,2.67
2018-06-22T19:17:38.188Z,2.40
2018-06-22T19:20:08.421Z,2.40
2018-06-22T19:22:38.242Z,2.73
2018-06-22T19:25:08.206Z,2.57
2018-06-22T19:27:38.086Z,2.77
2018-06-22T19:30:08.746Z,2.20
2018-06-22T19:32:38.914Z,2.23
2018-06-22T19:35:12.401Z,3.00
2018-06-22T19:37:43.625Z,2.87
2018-06-22T19:40:13.975Z,3.00
2018-06-22T19:42:43.816Z,2.90
2018-06-22T19:45:18.601Z,2.97
2018-06-22T19:47:53.641Z,3.57
2018-06-22T19:50:28.367Z,3.80
2018-06-22T19:53:03.195Z,2.97
2018-06-22T19:55:33.123Z,4.03
2018-06-22T19:58:03.196Z,3.30
2018-06-22T20:00:33.213Z,3.13
2018-06-22T20:03:03.287Z,2.60
2018-06-22T20:05:33.267Z,2.80
2018-06-22T20:08:03.176Z,3.30
2018-06-22T20:10:33.037Z,3.70
2018-06-22T20:13:03.332Z,3.43
2018-06-22T20:15:33.331Z,3.00
2018-06-22T20:18:03.259Z,3.70
2018-06-22T20:20:33.115Z,2.97
2018-06-22T20:23:02.934Z,2.70
2018-06-22T20:25:37.901Z,2.63
2018-06-22T20:28:07.933Z,3.37
2018-06-22T20:30:37.759Z,3.27
2018-06-22T20:33:07.583Z,3.13
2018-06-22T20:35:42.471Z,3.93
2018-06-22T20:38:17.311Z,3.17
2018-06-22T20:40:52.276Z,3.93
2018-06-22T20:43:27.259Z,3.37
2018-06-22T20:45:58.290Z,3.73
2018-06-22T20:48:33.235Z,3.30
2018-06-22T20:51:03.177Z,3.17
2018-06-22T20:53:33.059Z,2.67
2018-06-22T20:56:03.083Z,3.00
2018-06-22T20:58:33.039Z,3.20
2018-06-22T21:01:02.853Z,4.03
2018-06-22T21:03:32.679Z,2.90
2018-06-22T21:06:02.587Z,3.63
2018-06-22T21:08:32.387Z,4.03
2018-06-22T21:11:02.344Z,3.03
2018-06-22T21:13:32.466Z,3.50
2018-06-22T21:16:02.310Z,4.20
2018-06-22T21:18:32.191Z,3.93
2018-06-22T21:21:06.973Z,3.30
2018-06-22T21:23:37.168Z,4.10
2018-06-22T21:26:07.167Z,3.33
2018-06-22T21:28:41.975Z,4.40
2018-06-22T21:31:16.679Z,3.20
2018-06-22T21:35:56.647Z,3.33
2018-06-22T21:38:31.643Z,4.43
2018-06-22T21:41:01.564Z,3.37
2018-06-22T21:43:31.541Z,3.97
2018-06-22T21:46:01.487Z,3.60
2018-06-22T21:48:31.294Z,3.70
2018-06-22T21:51:01.226Z,3.97
2018-06-22T21:53:31.159Z,3.77
2018-06-22T21:56:00.951Z,4.10
2018-06-22T21:58:30.880Z,3.83
2018-06-22T22:01:00.778Z,4.40
2018-06-22T22:03:30.776Z,4.13
2018-06-22T22:06:00.759Z,4.60
2018-06-22T22:08:30.743Z,5.40
2018-06-22T22:11:05.511Z,3.70
2018-06-22T22:13:35.546Z,2.73
2018-06-22T22:16:05.383Z,5.13
2018-06-22T22:18:35.291Z,4.17
2018-06-22T22:21:05.262Z,4.47
2018-06-22T22:23:35.272Z,5.00
2018-06-22T22:26:05.194Z,3.90
2018-06-22T22:28:35.123Z,3.67
2018-06-22T22:31:05.133Z,3.30
2018-06-22T22:33:35.094Z,3.30
2018-06-22T22:36:05.100Z,3.27
2018-06-22T22:38:35.079Z,3.40
2018-06-22T22:41:04.975Z,4.23
2018-06-22T22:43:34.947Z,3.93
2018-06-22T22:46:04.986Z,4.50
2018-06-22T22:48:34.859Z,4.20
2018-06-22T22:51:04.982Z,4.20
2018-06-22T22:53:34.827Z,3.70
2018-06-22T22:56:04.778Z,4.20
2018-06-22T22:58:34.563Z,3.80
2018-06-22T23:01:04.585Z,3.80
2018-06-22T23:03:34.456Z,3.77
2018-06-22T23:06:04.443Z,4.47
2018-06-22T23:08:34.354Z,4.30
2018-06-22T23:11:04.272Z,3.97
2018-06-22T23:13:34.264Z,3.70
2018-06-22T23:16:04.176Z,4.10
2018-06-22T23:18:34.056Z,3.93
2018-06-22T23:21:04.271Z,3.77
2018-06-22T23:23:39.309Z,4.00
2018-06-22T23:26:09.246Z,4.17
2018-06-22T23:28:39.468Z,4.23
2018-06-22T23:31:09.418Z,4.50
2018-06-22T23:33:39.266Z,3.70
2018-06-22T23:36:09.206Z,4.57
2018-06-22T23:38:39.385Z,4.70
2018-06-22T23:41:09.495Z,5.00
2018-06-22T23:43:39.370Z,4.40
2018-06-22T23:46:09.235Z,5.00
2018-06-22T23:48:39.057Z,3.80
2018-06-22T23:51:09.838Z,3.87
2018-06-22T23:53:39.739Z,5.10
2018-06-22T23:56:09.648Z,4.33
2018-06-22T23:58:39.634Z,4.07
